Traditional Chinese Simplified Chinese
Climatological Information for Severe Cold recorded at Hong Kong Observatory
dotted-line

Climatological Information for Severe Cold recorded at
Hong Kong Observatory
(Period: 1947 - 2017)

Go To MODERATE COLDGo To SPRING COMMENCES
Day
(yyyy-mm-dd)
Air Temperature Daily
Relative
Humidity
(%)
Daily
Total
Rainfall
(mm)
Daily
Total
Cloud Amount
(%)
Maximum
(Degree C)
Mean
(Degree C)
Minimum
(Degree C)
1947-01-21 17.2 16.1 14.9 88 Trace ###
1948-01-21 18.7 16.8 15.3 87 30.7 ###
1949-01-20 16.2 13.8 11.9 77 - 17
1950-01-20 18.7 15.1 12.2 69 - 36
1951-01-21 17.1 13.3 9.8 57 - 24
1952-01-21 20.8 17.3 14.3 60 - 3
1953-01-20 19.4 15.9 14.1 82 - 63
1954-01-20 24.4 21.4 19.9 94 Trace 74
1955-01-21 17.4 14.2 10.7 65 - 5
1956-01-21 17.9 15.9 14.6 83 - 59
1957-01-20 15.9 12.7 9.3 77 9.8 88
1958-01-20 16.7 14.7 13.3 80 - 56
1959-01-21 17.1 14.4 12.9 59 - 79
1960-01-21 20.1 18.5 17.2 81 Trace 91
1961-01-20 17.3 14.4 12.5 70 - 8
1962-01-20 15.7 11.8 9.1 37 - 28
1963-01-21 21.0 16.0 13.3 72 - 2
1964-01-21 16.6 15.6 14.6 90 2.4 96
1965-01-20 20.7 17.3 14.7 65 - 1
1966-01-20 19.9 16.7 15.2 71 Trace 94
1967-01-21 21.4 17.9 15.1 71 Trace 91
1968-01-21 19.2 15.8 14.2 74 - 47
1969-01-20 26.4 23.2 20.9 87 - 74
1970-01-20 15.2 11.7 8.2 61 - 29
1971-01-21 17.0 14.1 12.4 58 Trace 57
1972-01-21 22.6 18.5 16.0 71 - 12
1973-01-20 21.0 17.4 15.2 87 23.9 82
1974-01-20 18.6 16.7 14.8 80 - 75
1975-01-21 16.4 14.4 13.4 92 0.4 98
1976-01-21 18.8 15.8 14.6 80 - 77
1977-01-20 19.2 15.5 12.6 80 - 41
1978-01-20 14.8 12.8 10.9 59 - 82
1979-01-21 20.1 17.4 15.7 78 - 88
1980-01-21 17.0 15.7 14.0 73 - 96
1981-01-20 18.0 16.7 15.4 70 - 52
1982-01-20 18.2 15.8 13.8 65 - 33
1983-01-20 14.6 11.6 9.4 62 Trace 91
1984-01-21 13.4 10.0 8.3 82 2.5 100
1985-01-20 19.6 16.7 13.9 68 - 59
1986-01-20 21.2 18.5 16.6 77 - 26
1987-01-20 16.5 15.5 14.5 73 - 94
1988-01-21 21.6 18.6 16.0 82 Trace 63
1989-01-20 21.2 17.5 15.2 74 - 47
1990-01-20 13.9 12.1 10.9 84 0.3 98
1991-01-20 20.4 18.5 16.9 84 - 52
1992-01-21 16.0 13.6 11.3 58 - 17
1993-01-20 12.7 11.5 10.3 82 - 100
1994-01-20 14.9 12.9 9.6 75 - 95
1995-01-20 20.0 18.6 17.8 85 Trace 81
1996-01-21 19.4 18.4 17.0 84 Trace 91
1997-01-20 20.5 18.7 17.1 83 - 43
1998-01-20 14.7 13.3 12.1 86 Trace 100
1999-01-20 20.4 18.5 17.1 81 - 71
2000-01-21 16.9 15.2 13.4 70 - 85
2001-01-20 23.3 20.3 18.2 71 - 40
2002-01-20 17.5 15.8 12.2 80 - 93
2003-01-20 19.6 18.1 16.8 73 - 42
2004-01-21 12.9 10.3 8.0 59 - 40
2005-01-20 16.5 15.8 15.2 82 - 87
2006-01-20 18.7 17.1 14.1 94 1.3 88
2007-01-20 18.0 16.9 15.5 86 0.5 90
2008-01-21 20.2 17.4 15.7 76 - 46
2009-01-20 20.4 18.1 16.1 75 - 71
2010-01-20 22.7 21.3 19.6 83 Trace 88
2011-01-20 18.7 16.1 14.5 70 - 86
2012-01-21 16.9 16.2 15.9 87 Trace 88
2013-01-20 19.1 17.8 15.8 75 - 85
2014-01-20 20.5 16.4 13.4 51 - 10
2015-01-20 18.5 15.9 14.2 67 - 45
2016-01-20 16.8 15.5 14.8 90 3.3 92
2017-01-20 20.6 18.3 16.2 69 Trace 51
Maximum
26.4 23.2 20.9 94 30.7 100
Minimum
12.7 10.0 8.0 37 - 1
Normals
(1961-1990)
18.6 15.7 13.7 73 1.0 61
Normals
(1971-2000)
18.0 15.7 13.9 76 0.9 70
Normals
(1981-2010)
18.1 16.1 14.3 77 0.2 69
### means data not available
Column's Maximum in light red background colour
Column's Minimum in light blue background colour